Airport Name : Pierre Rgnl

Other Name : Pierre Rgnl

ICAO : KPIR

IATA : PIR

FAA : PIR

Latitude : 44.382678

Longitude : -100.285964

Country : United States

Local Date and Time : 21 Jul 2024 02:02

 

TAF (Terminal Aerodrome Forecast)

KPIR 210537Z 2106/2206 VRB03KT P6SM BKN150 FM210900 00000KT P6SM BKN200 FM212300 07007KT P6SM VCTS BKN050CB

 

METAR (METeorological Aerodrome Report)

KPIR 210653Z AUTO 26003KT 10SM FEW050 SCT110 20/18 A3015 RMK AO2 SLP196 T02000183

KPIR 210553Z AUTO 20003KT 10SM CLR 22/19 A3015 RMK AO2 SLP195 T02220194 10294 20206 402940167 51006

KPIR 210453Z AUTO 00000KT 10SM CLR 22/20 A3014 RMK AO2 SLP192 T02170200

KPIR 210353Z AUTO 11004KT 10SM SCT055 23/19 A3014 RMK AO2 SLP194 T02280194